createdAt,value
2022-08-03T00:02:34.295Z,19.48
2022-08-03T00:05:21.334Z,19.48
2022-08-03T00:08:08.706Z,19.43
2022-08-03T00:10:55.771Z,19.40
2022-08-03T00:13:43.047Z,19.39
2022-08-03T00:16:30.046Z,19.33
2022-08-03T00:19:17.038Z,19.32
2022-08-03T00:22:04.106Z,19.29
2022-08-03T00:24:51.093Z,19.25
2022-08-03T00:27:38.135Z,19.24
2022-08-03T00:30:29.385Z,19.22
2022-08-03T00:33:18.255Z,19.21
2022-08-03T00:36:07.222Z,19.16
2022-08-03T00:38:54.449Z,19.12
2022-08-03T00:41:41.447Z,19.08
2022-08-03T00:44:28.393Z,19.03
2022-08-03T00:47:15.469Z,19.05
2022-08-03T00:50:03.770Z,19.04
2022-08-03T00:52:54.030Z,18.98
2022-08-03T00:55:42.345Z,18.96
2022-08-03T00:58:29.450Z,18.96
2022-08-03T01:01:16.546Z,18.93
2022-08-03T01:04:04.971Z,18.90
2022-08-03T01:07:10.995Z,18.91
2022-08-03T01:10:12.525Z,18.87
2022-08-03T01:14:03.417Z,18.87
2022-08-03T01:16:36.734Z,18.82
2022-08-03T01:19:43.021Z,18.84
2022-08-03T01:23:11.062Z,18.82
2022-08-03T01:26:10.161Z,18.81
2022-08-03T01:29:20.254Z,18.73
2022-08-03T01:33:02.785Z,18.72
2022-08-03T01:35:38.284Z,18.69
2022-08-03T01:38:29.494Z,18.70
2022-08-03T01:41:30.825Z,18.74
2022-08-03T01:44:29.737Z,18.73
2022-08-03T01:47:21.297Z,18.67
2022-08-03T01:50:10.967Z,18.62
2022-08-03T01:52:59.197Z,18.60
2022-08-03T01:55:48.723Z,18.55
2022-08-03T01:58:37.275Z,18.58
2022-08-03T02:01:25.504Z,18.55
2022-08-03T02:04:33.323Z,18.52
2022-08-03T02:07:20.888Z,18.48
2022-08-03T02:10:11.724Z,18.45
2022-08-03T02:13:01.398Z,18.39
2022-08-03T02:15:49.241Z,18.34
2022-08-03T02:18:39.715Z,18.37
2022-08-03T02:21:57.356Z,18.35
2022-08-03T02:24:37.144Z,18.30
2022-08-03T02:27:27.182Z,18.25
2022-08-03T02:30:14.568Z,18.24
2022-08-03T02:33:02.450Z,18.23
2022-08-03T02:35:50.811Z,18.25
2022-08-03T02:38:42.705Z,18.25
2022-08-03T02:41:42.014Z,18.19
2022-08-03T02:44:34.857Z,18.14
2022-08-03T02:47:22.717Z,18.09
2022-08-03T02:50:12.443Z,18.09
2022-08-03T02:53:01.545Z,18.04
2022-08-03T02:55:50.301Z,17.99
2022-08-03T02:58:40.265Z,18.00
2022-08-03T03:01:29.178Z,18.04
2022-08-03T03:04:17.279Z,18.00
2022-08-03T03:07:08.153Z,17.98
2022-08-03T03:09:56.354Z,18.01
2022-08-03T03:12:45.090Z,18.03
2022-08-03T03:15:35.878Z,18.05
2022-08-03T03:18:25.216Z,18.02
2022-08-03T03:21:14.482Z,18.00
2022-08-03T03:24:02.570Z,18.03
2022-08-03T03:26:50.190Z,18.04
2022-08-03T03:29:39.391Z,18.07
2022-08-03T03:32:28.121Z,18.06
2022-08-03T03:35:16.714Z,18.06
2022-08-03T03:38:03.778Z,18.08
2022-08-03T03:40:50.749Z,18.06
2022-08-03T03:43:37.915Z,18.11
2022-08-03T03:46:25.322Z,18.09
2022-08-03T03:49:12.553Z,18.10
2022-08-03T03:52:00.031Z,18.07
2022-08-03T03:54:47.071Z,18.04
2022-08-03T03:57:35.031Z,18.04
2022-08-03T04:00:23.333Z,18.04
2022-08-03T04:03:11.894Z,18.04
2022-08-03T04:06:31.810Z,18.04
2022-08-03T04:09:37.693Z,18.04
2022-08-03T04:12:28.902Z,18.01
2022-08-03T04:15:17.334Z,18.01
2022-08-03T04:18:06.744Z,18.05
2022-08-03T04:20:55.283Z,18.14
2022-08-03T04:23:46.147Z,18.14
2022-08-03T04:26:37.477Z,18.17
2022-08-03T04:29:26.883Z,18.24
2022-08-03T04:32:14.797Z,18.31
2022-08-03T04:35:02.074Z,18.39
2022-08-03T04:37:52.731Z,18.45
2022-08-03T04:40:42.813Z,18.47
2022-08-03T04:43:32.881Z,18.53
2022-08-03T04:46:24.236Z,18.60
2022-08-03T04:49:12.385Z,18.71
2022-08-03T04:51:59.612Z,18.82
2022-08-03T04:54:50.716Z,18.89
2022-08-03T04:57:38.042Z,18.97
2022-08-03T05:00:25.994Z,19.03
2022-08-03T05:03:23.485Z,19.11
2022-08-03T05:06:11.832Z,19.16
2022-08-03T05:08:58.865Z,19.30
2022-08-03T05:11:46.541Z,19.36
2022-08-03T05:14:36.226Z,19.45
2022-08-03T05:17:23.193Z,19.52
2022-08-03T05:20:11.409Z,19.60
2022-08-03T05:22:59.296Z,19.68
2022-08-03T05:25:50.115Z,19.80
2022-08-03T05:28:37.524Z,19.82
2022-08-03T05:31:24.544Z,19.88
2022-08-03T05:34:11.523Z,19.96
2022-08-03T05:36:58.535Z,20.08
2022-08-03T05:39:45.530Z,20.16
2022-08-03T05:42:32.552Z,20.24
2022-08-03T05:45:19.960Z,20.33
2022-08-03T05:48:06.946Z,20.57
2022-08-03T05:50:53.977Z,20.79
2022-08-03T05:53:42.358Z,20.90
2022-08-03T05:56:29.394Z,21.09
2022-08-03T05:59:36.962Z,21.40
2022-08-03T06:02:23.373Z,21.70
2022-08-03T06:05:10.907Z,21.99
2022-08-03T06:07:57.857Z,22.20
2022-08-03T06:10:44.922Z,22.47
2022-08-03T06:13:32.398Z,22.69
2022-08-03T06:16:19.359Z,23.02
2022-08-03T06:19:06.434Z,23.11
2022-08-03T06:21:53.530Z,23.05
2022-08-03T06:24:41.647Z,23.16
2022-08-03T06:27:40.362Z,23.29
2022-08-03T06:30:27.395Z,23.36
2022-08-03T06:33:14.446Z,23.57
2022-08-03T06:36:01.469Z,23.76
2022-08-03T06:38:48.622Z,23.74
2022-08-03T06:41:38.060Z,23.95
2022-08-03T06:44:31.657Z,24.15
2022-08-03T06:47:18.691Z,24.21
2022-08-03T06:50:16.245Z,24.30
2022-08-03T06:53:05.804Z,24.14
2022-08-03T06:55:55.093Z,24.16
2022-08-03T06:58:42.810Z,24.25
2022-08-03T07:01:29.956Z,24.22
2022-08-03T07:04:17.250Z,24.13
2022-08-03T07:07:04.683Z,24.16
2022-08-03T07:09:56.433Z,24.30
2022-08-03T07:12:52.698Z,24.41
2022-08-03T07:15:55.684Z,24.59
2022-08-03T07:18:43.321Z,24.70
2022-08-03T07:21:30.596Z,24.77
2022-08-03T07:24:17.838Z,24.87
2022-08-03T07:27:05.232Z,24.83
2022-08-03T07:29:52.793Z,24.95
2022-08-03T07:32:50.195Z,24.99
2022-08-03T07:35:38.047Z,25.08
2022-08-03T07:38:25.577Z,25.30
2022-08-03T07:41:12.989Z,25.40
2022-08-03T07:44:00.056Z,25.67
2022-08-03T07:46:48.575Z,25.98
2022-08-03T07:49:40.110Z,25.99
2022-08-03T07:52:45.878Z,26.24
2022-08-03T07:55:33.047Z,26.53
2022-08-03T07:58:23.975Z,26.65
2022-08-03T08:01:11.635Z,26.75
2022-08-03T08:04:02.240Z,26.93
2022-08-03T08:06:49.301Z,26.79
2022-08-03T08:09:36.591Z,27.07
2022-08-03T08:12:23.582Z,27.06
2022-08-03T08:15:10.738Z,27.26
2022-08-03T08:17:59.843Z,27.37
2022-08-03T08:20:46.989Z,27.34
2022-08-03T08:23:41.999Z,27.48
2022-08-03T08:26:30.525Z,27.45
2022-08-03T08:29:18.581Z,27.88
2022-08-03T08:32:07.445Z,27.88
2022-08-03T08:34:54.609Z,27.97
2022-08-03T08:37:41.742Z,27.84
2022-08-03T08:40:29.505Z,28.31
2022-08-03T08:43:16.822Z,28.57
2022-08-03T08:46:05.998Z,29.06
2022-08-03T08:48:54.514Z,28.92
2022-08-03T08:51:59.252Z,28.96
2022-08-03T08:54:48.155Z,29.22
2022-08-03T08:57:43.520Z,29.18
2022-08-03T09:00:31.359Z,29.43
2022-08-03T09:03:22.371Z,29.24
2022-08-03T09:06:17.064Z,29.30
2022-08-03T09:09:06.080Z,29.11
2022-08-03T09:12:01.279Z,29.28
2022-08-03T09:15:20.515Z,30.04
2022-08-03T09:18:09.585Z,29.78
2022-08-03T09:21:31.344Z,29.89
2022-08-03T09:24:40.659Z,30.21
2022-08-03T09:27:28.854Z,30.31
2022-08-03T09:30:33.073Z,30.49
2022-08-03T09:33:22.139Z,30.51
2022-08-03T09:36:09.162Z,30.52
2022-08-03T09:39:13.018Z,30.36
2022-08-03T09:42:08.835Z,30.33
2022-08-03T09:44:55.836Z,30.51
2022-08-03T09:47:45.022Z,31.03
2022-08-03T09:50:57.031Z,31.25
2022-08-03T09:53:59.341Z,31.89
2022-08-03T09:56:47.602Z,31.54
2022-08-03T09:59:35.164Z,31.46
2022-08-03T10:02:26.712Z,30.86
2022-08-03T10:05:19.415Z,31.49
2022-08-03T10:08:15.554Z,31.71
2022-08-03T10:11:02.777Z,31.80
2022-08-03T10:13:49.932Z,32.38
2022-08-03T10:16:38.762Z,32.43
2022-08-03T10:19:25.838Z,32.20
2022-08-03T10:22:32.534Z,32.10
2022-08-03T10:25:19.602Z,32.74
2022-08-03T10:28:08.738Z,32.38
2022-08-03T10:30:56.780Z,32.38
2022-08-03T10:33:51.060Z,32.81
2022-08-03T10:36:41.645Z,32.63
2022-08-03T10:39:31.875Z,32.49
2022-08-03T10:42:26.409Z,33.25
2022-08-03T10:45:20.992Z,32.96
2022-08-03T10:48:09.852Z,33.37
2022-08-03T10:50:57.789Z,32.83
2022-08-03T10:53:54.639Z,32.74
2022-08-03T10:57:14.144Z,33.01
2022-08-03T11:00:05.610Z,33.37
2022-08-03T11:03:11.253Z,32.54
2022-08-03T11:06:20.098Z,31.86
2022-08-03T11:09:10.147Z,32.00
2022-08-03T11:12:01.461Z,31.91
2022-08-03T11:14:49.584Z,32.19
2022-08-03T11:17:55.663Z,32.92
2022-08-03T11:20:54.320Z,32.90
2022-08-03T11:24:04.285Z,32.75
2022-08-03T11:27:21.237Z,33.22
2022-08-03T11:30:18.590Z,32.79
2022-08-03T11:33:05.597Z,32.82
2022-08-03T11:36:02.641Z,32.94
2022-08-03T11:39:22.362Z,33.35
2022-08-03T11:42:24.721Z,33.26
2022-08-03T11:45:12.748Z,33.64
2022-08-03T11:48:13.914Z,33.65
2022-08-03T11:51:05.396Z,33.79
2022-08-03T11:54:00.851Z,33.88
2022-08-03T11:56:50.202Z,34.26
2022-08-03T11:59:38.797Z,33.62
2022-08-03T12:02:26.062Z,33.60
2022-08-03T12:05:13.224Z,33.85
2022-08-03T12:08:03.617Z,33.97
2022-08-03T12:10:55.715Z,33.82
2022-08-03T12:14:33.106Z,33.97
2022-08-03T12:16:54.220Z,33.72
2022-08-03T12:19:44.422Z,33.80
2022-08-03T12:22:33.413Z,32.60
2022-08-03T12:25:39.288Z,33.48
2022-08-03T12:28:36.026Z,34.31
2022-08-03T12:31:25.897Z,34.30
2022-08-03T12:34:13.849Z,33.58
2022-08-03T12:37:22.156Z,34.53
2022-08-03T12:40:15.145Z,34.98
2022-08-03T12:43:12.647Z,34.21
2022-08-03T12:46:13.855Z,34.81
2022-08-03T12:49:15.710Z,34.01
2022-08-03T12:52:07.453Z,34.23
2022-08-03T12:55:02.023Z,34.04
2022-08-03T12:57:56.382Z,34.18
2022-08-03T13:00:58.594Z,34.40
2022-08-03T13:07:04.616Z,35.07
2022-08-03T13:09:57.645Z,35.05
2022-08-03T13:12:50.671Z,34.48
2022-08-03T13:15:48.018Z,34.12
2022-08-03T13:18:35.296Z,34.54
2022-08-03T13:21:25.155Z,34.32
2022-08-03T13:24:25.434Z,33.93
2022-08-03T13:28:01.092Z,34.50
2022-08-03T13:30:30.183Z,34.59
2022-08-03T13:33:18.319Z,34.75
2022-08-03T13:39:09.270Z,34.78
2022-08-03T13:42:02.632Z,34.72
2022-08-03T13:44:49.879Z,34.85
2022-08-03T13:47:38.316Z,35.03
2022-08-03T13:50:26.352Z,35.22
2022-08-03T13:53:13.426Z,35.44
2022-08-03T13:56:01.499Z,35.45
2022-08-03T13:58:48.744Z,34.94
2022-08-03T14:01:53.980Z,34.82
2022-08-03T14:04:42.597Z,35.04
2022-08-03T14:07:29.550Z,34.37
2022-08-03T14:10:17.730Z,34.61
2022-08-03T14:13:05.762Z,34.26
2022-08-03T14:15:57.928Z,34.15
2022-08-03T14:18:46.336Z,34.63
2022-08-03T14:21:36.603Z,34.16
2022-08-03T14:24:23.883Z,34.66
2022-08-03T14:27:10.895Z,34.40
2022-08-03T14:30:00.118Z,34.59
2022-08-03T14:32:47.275Z,34.78
2022-08-03T14:35:35.292Z,34.35
2022-08-03T14:38:22.707Z,34.50
2022-08-03T14:41:12.216Z,34.48
2022-08-03T14:44:09.679Z,34.48
2022-08-03T14:46:56.632Z,34.31
2022-08-03T14:50:38.677Z,34.53
2022-08-03T14:52:50.957Z,34.08
2022-08-03T14:55:38.822Z,33.97
2022-08-03T14:58:37.566Z,34.21
2022-08-03T15:02:06.364Z,34.54
2022-08-03T15:04:49.645Z,34.48
2022-08-03T15:07:36.631Z,34.44
2022-08-03T15:10:27.092Z,34.32
2022-08-03T15:13:27.866Z,34.59
2022-08-03T15:16:14.909Z,34.60
2022-08-03T15:19:01.960Z,34.51
2022-08-03T15:21:52.063Z,34.18
2022-08-03T15:24:39.277Z,33.87
2022-08-03T15:27:26.298Z,33.96
2022-08-03T15:30:13.486Z,34.50
2022-08-03T15:33:00.485Z,35.05
2022-08-03T15:35:47.910Z,34.84
2022-08-03T15:38:35.005Z,34.76
2022-08-03T15:41:21.998Z,34.87
2022-08-03T15:44:09.497Z,34.44
2022-08-03T15:46:56.542Z,34.75
2022-08-03T15:49:43.533Z,34.79
2022-08-03T15:52:30.508Z,34.96
2022-08-03T15:55:21.865Z,35.33
2022-08-03T15:59:10.240Z,35.17
2022-08-03T16:01:19.630Z,35.10
2022-08-03T16:04:07.083Z,34.66
2022-08-03T16:06:54.181Z,34.80
2022-08-03T16:09:44.060Z,34.89
2022-08-03T16:12:31.406Z,35.44
2022-08-03T16:15:20.019Z,35.61
2022-08-03T16:18:07.731Z,35.85
2022-08-03T16:20:54.746Z,35.58
2022-08-03T16:23:43.139Z,36.30
2022-08-03T16:26:34.918Z,36.51
2022-08-03T16:29:23.585Z,37.10
2022-08-03T16:32:11.446Z,36.81
2022-08-03T16:34:58.664Z,36.79
2022-08-03T16:37:46.124Z,36.53
2022-08-03T16:40:43.704Z,36.96
2022-08-03T16:43:31.014Z,37.90
2022-08-03T16:46:18.077Z,38.65
2022-08-03T16:49:05.091Z,38.56
2022-08-03T16:51:52.281Z,38.69
2022-08-03T16:54:41.270Z,38.40
2022-08-03T16:57:56.461Z,37.72
2022-08-03T17:00:41.806Z,35.92
2022-08-03T17:03:42.429Z,35.15
2022-08-03T17:06:45.195Z,34.59
2022-08-03T17:09:38.166Z,33.83
2022-08-03T17:12:27.084Z,33.31
2022-08-03T17:15:14.491Z,33.40
2022-08-03T17:18:07.972Z,33.33
2022-08-03T17:20:57.905Z,33.46
2022-08-03T17:23:53.633Z,33.02
2022-08-03T17:26:46.024Z,33.13
2022-08-03T17:29:45.237Z,32.76
2022-08-03T17:32:34.688Z,32.97
2022-08-03T17:35:22.439Z,32.88
2022-08-03T17:38:15.006Z,32.70
2022-08-03T17:41:10.662Z,32.43
2022-08-03T17:44:15.331Z,32.22
2022-08-03T17:47:06.621Z,32.04
2022-08-03T17:49:54.846Z,31.91
2022-08-03T17:52:48.242Z,31.59
2022-08-03T17:55:56.043Z,31.58
2022-08-03T17:59:14.954Z,31.43
2022-08-03T18:02:40.448Z,31.24
2022-08-03T18:06:11.943Z,31.17
2022-08-03T18:08:50.536Z,31.14
2022-08-03T18:11:44.627Z,30.75
2022-08-03T18:18:02.261Z,30.30
2022-08-03T18:20:49.964Z,30.07
2022-08-03T18:23:39.121Z,29.84
2022-08-03T18:26:26.358Z,29.53
2022-08-03T18:29:14.126Z,29.30
2022-08-03T18:32:03.777Z,29.07
2022-08-03T18:34:53.522Z,28.77
2022-08-03T18:37:51.910Z,28.62
2022-08-03T18:40:51.860Z,28.43
2022-08-03T18:43:46.357Z,28.28
2022-08-03T18:46:50.550Z,28.12
2022-08-03T18:49:40.619Z,28.00
2022-08-03T18:52:58.718Z,27.87
2022-08-03T18:56:01.939Z,27.72
2022-08-03T18:59:04.342Z,27.56
2022-08-03T19:02:00.683Z,27.42
2022-08-03T19:04:50.141Z,27.20
2022-08-03T19:07:38.827Z,27.12
2022-08-03T19:10:32.110Z,26.94
2022-08-03T19:13:30.817Z,26.87
2022-08-03T19:16:38.812Z,26.74
2022-08-03T19:19:27.926Z,26.63
2022-08-03T19:22:33.397Z,26.53
2022-08-03T19:25:34.906Z,26.41
2022-08-03T19:28:29.629Z,26.30
2022-08-03T19:31:17.322Z,26.16
2022-08-03T19:34:08.204Z,26.10
2022-08-03T19:36:58.557Z,25.96
2022-08-03T19:39:45.767Z,25.85
2022-08-03T19:42:46.574Z,25.73
2022-08-03T19:46:05.028Z,25.67
2022-08-03T19:48:55.682Z,25.60
2022-08-03T19:52:02.215Z,25.48
2022-08-03T19:54:53.658Z,25.38
2022-08-03T19:57:45.717Z,25.31
2022-08-03T20:00:37.089Z,25.22
2022-08-03T20:03:42.814Z,25.15
2022-08-03T20:06:31.507Z,25.11
2022-08-03T20:09:20.635Z,25.00
2022-08-03T20:12:09.353Z,24.92
2022-08-03T20:14:59.599Z,24.87
2022-08-03T20:17:56.267Z,24.84
2022-08-03T20:20:48.691Z,24.75
2022-08-03T20:23:38.914Z,24.68
2022-08-03T20:30:06.511Z,24.55
2022-08-03T20:32:54.827Z,24.51
2022-08-03T20:35:45.847Z,24.38
2022-08-03T20:38:43.669Z,24.29
2022-08-03T20:41:35.614Z,24.21
2022-08-03T20:44:25.733Z,24.16
2022-08-03T20:47:15.059Z,24.09
2022-08-03T20:50:11.450Z,24.01
2022-08-03T20:52:59.339Z,23.90
2022-08-03T20:56:02.123Z,23.81
2022-08-03T20:58:50.988Z,23.76
2022-08-03T21:01:38.125Z,23.65
2022-08-03T21:04:25.074Z,23.58
2022-08-03T21:07:18.404Z,23.54
2022-08-03T21:10:13.195Z,23.49
2022-08-03T21:13:04.191Z,30.43
2022-08-03T21:13:13.253Z,24.60
2022-08-03T21:13:23.590Z,23.44
2022-08-03T21:16:14.947Z,23.42
2022-08-03T21:19:03.929Z,23.37
2022-08-03T21:21:53.387Z,23.30
2022-08-03T21:24:44.950Z,23.25
2022-08-03T21:27:32.771Z,23.17
2022-08-03T21:30:22.174Z,23.09
2022-08-03T21:33:09.349Z,23.20
2022-08-03T21:36:01.175Z,23.08
2022-08-03T21:38:57.049Z,23.03
2022-08-03T21:41:44.600Z,22.89
2022-08-03T21:44:31.608Z,22.87
2022-08-03T21:47:21.413Z,22.72
2022-08-03T21:50:11.836Z,22.64
2022-08-03T21:52:59.479Z,22.60
2022-08-03T21:56:08.511Z,22.58
2022-08-03T21:58:56.915Z,22.50
2022-08-03T22:01:48.931Z,22.44
2022-08-03T22:04:39.121Z,22.40
2022-08-03T22:07:40.765Z,22.39
2022-08-03T22:10:28.907Z,22.34
2022-08-03T22:13:23.327Z,22.36
2022-08-03T22:16:25.441Z,22.28
2022-08-03T22:19:12.497Z,22.27
2022-08-03T22:22:00.459Z,22.26
2022-08-03T22:24:48.881Z,22.18
2022-08-03T22:27:40.513Z,22.20
2022-08-03T22:30:27.580Z,22.15
2022-08-03T22:33:15.901Z,22.09
2022-08-03T22:36:05.213Z,21.98
2022-08-03T22:38:53.190Z,21.96
2022-08-03T22:41:40.402Z,21.92
2022-08-03T22:44:29.751Z,21.82
2022-08-03T22:47:22.755Z,21.80
2022-08-03T22:50:31.794Z,21.74
2022-08-03T22:53:21.922Z,21.65
2022-08-03T22:56:09.165Z,21.66
2022-08-03T22:58:56.115Z,21.64
2022-08-03T23:01:44.174Z,21.59
2022-08-03T23:04:33.997Z,21.56
2022-08-03T23:07:30.355Z,21.48
2022-08-03T23:10:18.227Z,21.41
2022-08-03T23:13:06.824Z,21.39
2022-08-03T23:15:59.064Z,21.38
2022-08-03T23:18:48.992Z,21.29
2022-08-03T23:22:00.658Z,21.30
2022-08-03T23:24:45.146Z,21.24
2022-08-03T23:27:33.228Z,21.25
2022-08-03T23:30:20.242Z,21.27
2022-08-03T23:33:18.857Z,21.25
2022-08-03T23:36:28.725Z,21.27
2022-08-03T23:39:16.631Z,21.21
2022-08-03T23:42:04.385Z,21.13
2022-08-03T23:44:55.184Z,21.10
2022-08-03T23:47:46.491Z,21.04
2022-08-03T23:50:44.810Z,21.08
2022-08-03T23:53:41.255Z,21.01
2022-08-03T23:56:41.311Z,20.98
2022-08-03T23:59:51.558Z,20.94
